Aeroporto :







RITROVATECI SU...

 
LOGIN :

Iscrizione | Disclaimer

   EN    FR    IT 

 









Sommario :    VFR   VFR Marginale   IFR   IFR Intensivo   IFR Molto Intensivo
Visibilità : 
Base nubi : 
>= 8 km
>= 3000ft
5 / 8 km
1000 / 3000 ft
1500m / 5 km
500 / 1000 ft
800 / 1500m
200 / 500 ft
< 800m
< 200 ft
Simboli :   Temporali  Nebbia  Neve Forte  Precipitazioni Forti  Vento > 20 kt






- Altitudine del aeroporto : 192 ft
- Codice IATA : BGR


KBGR - Bangor International

ULTIMO METAR :
  • 171453Z 01005KT 10SM SCT120 SCT200 M04/M11 A3053 RMK AO2 SLP342 T10441111 58003

METARs OBSOLETI :
  • 171353Z 36006KT 10SM FEW120 FEW200 M07/M12 A3053 RMK AO2 SLP343 T10671117
  • 171253Z 35003KT 10SM FEW120 FEW200 M09/M13 A3054 RMK AO2 SLP348 T10891128

TAF KBGR
Valido dal 17 a 12 ore il 18 a 12 ore UTC


171120Z 1712/1812 00000KT P6SM FEW100
FM181000 03003KT P6SM BKN028



MetMap, La meteo Aeronautica in un colpo d'occhio ! - Copyright ORBIFLY Dicembre 2007 - Disclaimer

ORBIFLY MET'MAP TEAM :

Programmazione e sviluppo : Alexandra Zaïnal
Concezione e sviluppo : Baudouin d'Aumeries
Co-Programmazione e sviluppo : Marc-Olivier Méhu
Supporto tecnico e logistico : Manuel Goepfert
Aiuto per la traduzione : Arnaldo La Scala

Contatto : metmap@orbifly.com




FONTI E CREDITI :

   NOAA